sensor_id;sensor_type;location;lat;lon;timestamp;P1;durP1;ratioP1;P2;durP2;ratioP2
10823;SDS011;39116;59.332;18.034;2022-07-18T00:00:17;0.98;;;0.90;;
10823;SDS011;39116;59.332;18.034;2022-07-18T00:02:43;0.70;;;0.70;;
10823;SDS011;39116;59.332;18.034;2022-07-18T00:05:09;0.80;;;0.80;;
10823;SDS011;39116;59.332;18.034;2022-07-18T00:07:37;0.98;;;0.70;;
10823;SDS011;39116;59.332;18.034;2022-07-18T00:10:04;0.85;;;0.63;;
10823;SDS011;39116;59.332;18.034;2022-07-18T00:12:31;1.02;;;0.70;;
10823;SDS011;39116;59.332;18.034;2022-07-18T00:14:57;1.85;;;0.82;;
10823;SDS011;39116;59.332;18.034;2022-07-18T00:17:24;1.23;;;0.80;;
10823;SDS011;39116;59.332;18.034;2022-07-18T00:19:50;0.80;;;0.70;;
10823;SDS011;39116;59.332;18.034;2022-07-18T00:22:17;1.25;;;0.70;;
10823;SDS011;39116;59.332;18.034;2022-07-18T00:24:45;1.65;;;0.88;;
10823;SDS011;39116;59.332;18.034;2022-07-18T00:27:12;0.80;;;0.80;;
10823;SDS011;39116;59.332;18.034;2022-07-18T00:29:38;0.70;;;0.70;;
10823;SDS011;39116;59.332;18.034;2022-07-18T00:32:05;0.70;;;0.70;;
10823;SDS011;39116;59.332;18.034;2022-07-18T00:34:32;1.63;;;0.80;;
10823;SDS011;39116;59.332;18.034;2022-07-18T00:36:58;1.75;;;0.65;;
10823;SDS011;39116;59.332;18.034;2022-07-18T00:39:25;1.75;;;0.80;;
10823;SDS011;39116;59.332;18.034;2022-07-18T00:41:53;0.65;;;0.65;;
10823;SDS011;39116;59.332;18.034;2022-07-18T00:44:20;0.77;;;0.75;;
10823;SDS011;39116;59.332;18.034;2022-07-18T00:46:48;0.93;;;0.63;;
10823;SDS011;39116;59.332;18.034;2022-07-18T00:49:15;0.80;;;0.70;;
10823;SDS011;39116;59.332;18.034;2022-07-18T00:51:41;0.93;;;0.80;;
10823;SDS011;39116;59.332;18.034;2022-07-18T00:54:08;0.73;;;0.73;;
10823;SDS011;39116;59.332;18.034;2022-07-18T00:56:34;2.58;;;1.00;;
10823;SDS011;39116;59.332;18.034;2022-07-18T00:59:02;1.17;;;0.90;;
10823;SDS011;39116;59.332;18.034;2022-07-18T01:01:28;0.90;;;0.70;;
10823;SDS011;39116;59.332;18.034;2022-07-18T01:04:11;1.05;;;0.80;;
10823;SDS011;39116;59.332;18.034;2022-07-18T01:06:38;1.00;;;0.80;;
10823;SDS011;39116;59.332;18.034;2022-07-18T01:09:05;2.17;;;0.85;;
10823;SDS011;39116;59.332;18.034;2022-07-18T01:11:32;0.73;;;0.73;;
10823;SDS011;39116;59.332;18.034;2022-07-18T01:13:59;3.28;;;1.00;;
10823;SDS011;39116;59.332;18.034;2022-07-18T01:16:27;0.80;;;0.77;;
10823;SDS011;39116;59.332;18.034;2022-07-18T01:18:54;1.45;;;0.80;;
10823;SDS011;39116;59.332;18.034;2022-07-18T01:21:24;0.70;;;0.70;;
10823;SDS011;39116;59.332;18.034;2022-07-18T01:23:51;1.17;;;0.90;;
10823;SDS011;39116;59.332;18.034;2022-07-18T01:26:18;0.80;;;0.80;;
10823;SDS011;39116;59.332;18.034;2022-07-18T01:28:45;1.90;;;1.08;;
10823;SDS011;39116;59.332;18.034;2022-07-18T01:31:11;0.80;;;0.80;;
10823;SDS011;39116;59.332;18.034;2022-07-18T01:33:38;1.55;;;0.88;;
10823;SDS011;39116;59.332;18.034;2022-07-18T01:36:05;1.15;;;0.80;;
10823;SDS011;39116;59.332;18.034;2022-07-18T01:38:34;1.30;;;0.88;;
10823;SDS011;39116;59.332;18.034;2022-07-18T01:41:00;0.80;;;0.80;;
10823;SDS011;39116;59.332;18.034;2022-07-18T01:43:27;0.82;;;0.75;;
10823;SDS011;39116;59.332;18.034;2022-07-18T01:45:54;1.00;;;0.93;;
10823;SDS011;39116;59.332;18.034;2022-07-18T01:48:20;1.48;;;0.85;;
10823;SDS011;39116;59.332;18.034;2022-07-18T01:50:48;0.98;;;0.90;;
10823;SDS011;39116;59.332;18.034;2022-07-18T01:53:14;1.10;;;0.80;;
10823;SDS011;39116;59.332;18.034;2022-07-18T01:55:42;0.70;;;0.70;;
10823;SDS011;39116;59.332;18.034;2022-07-18T01:58:09;1.30;;;1.00;;
10823;SDS011;39116;59.332;18.034;2022-07-18T02:00:35;1.98;;;0.82;;
10823;SDS011;39116;59.332;18.034;2022-07-18T02:03:02;1.92;;;0.70;;
10823;SDS011;39116;59.332;18.034;2022-07-18T02:05:30;0.75;;;0.75;;
10823;SDS011;39116;59.332;18.034;2022-07-18T02:07:59;1.08;;;0.90;;
10823;SDS011;39116;59.332;18.034;2022-07-18T02:10:26;1.80;;;0.90;;
10823;SDS011;39116;59.332;18.034;2022-07-18T02:12:54;1.15;;;0.90;;
10823;SDS011;39116;59.332;18.034;2022-07-18T02:15:20;1.90;;;0.82;;
10823;SDS011;39116;59.332;18.034;2022-07-18T02:17:47;1.10;;;1.00;;
10823;SDS011;39116;59.332;18.034;2022-07-18T02:20:14;1.45;;;1.00;;
10823;SDS011;39116;59.332;18.034;2022-07-18T02:22:40;1.65;;;0.95;;
10823;SDS011;39116;59.332;18.034;2022-07-18T02:25:07;2.28;;;0.98;;
10823;SDS011;39116;59.332;18.034;2022-07-18T02:27:34;1.85;;;0.90;;
10823;SDS011;39116;59.332;18.034;2022-07-18T02:30:02;1.50;;;0.93;;
10823;SDS011;39116;59.332;18.034;2022-07-18T02:32:28;1.30;;;1.00;;
10823;SDS011;39116;59.332;18.034;2022-07-18T02:34:56;0.95;;;0.80;;
10823;SDS011;39116;59.332;18.034;2022-07-18T02:37:23;1.63;;;1.00;;
10823;SDS011;39116;59.332;18.034;2022-07-18T02:39:49;1.08;;;1.00;;
10823;SDS011;39116;59.332;18.034;2022-07-18T02:42:16;1.40;;;0.90;;
10823;SDS011;39116;59.332;18.034;2022-07-18T02:44:42;2.25;;;1.05;;
10823;SDS011;39116;59.332;18.034;2022-07-18T02:47:12;0.95;;;0.90;;
10823;SDS011;39116;59.332;18.034;2022-07-18T02:49:38;0.90;;;0.90;;
10823;SDS011;39116;59.332;18.034;2022-07-18T02:52:06;1.08;;;0.93;;
10823;SDS011;39116;59.332;18.034;2022-07-18T02:54:33;3.88;;;1.00;;
10823;SDS011;39116;59.332;18.034;2022-07-18T02:57:00;1.02;;;0.98;;
10823;SDS011;39116;59.332;18.034;2022-07-18T02:59:26;2.00;;;1.13;;
10823;SDS011;39116;59.332;18.034;2022-07-18T03:01:53;1.33;;;1.00;;
10823;SDS011;39116;59.332;18.034;2022-07-18T03:04:22;1.20;;;1.00;;
10823;SDS011;39116;59.332;18.034;2022-07-18T03:06:49;1.23;;;1.00;;
10823;SDS011;39116;59.332;18.034;2022-07-18T03:09:15;1.38;;;1.00;;
10823;SDS011;39116;59.332;18.034;2022-07-18T03:11:43;1.92;;;1.00;;
10823;SDS011;39116;59.332;18.034;2022-07-18T03:14:10;1.10;;;1.00;;
10823;SDS011;39116;59.332;18.034;2022-07-18T03:16:36;1.48;;;0.90;;
10823;SDS011;39116;59.332;18.034;2022-07-18T03:19:02;3.08;;;1.08;;
10823;SDS011;39116;59.332;18.034;2022-07-18T03:21:30;1.10;;;1.00;;
10823;SDS011;39116;59.332;18.034;2022-07-18T03:23:57;1.50;;;1.20;;
10823;SDS011;39116;59.332;18.034;2022-07-18T03:26:23;1.00;;;0.90;;
10823;SDS011;39116;59.332;18.034;2022-07-18T03:28:50;2.55;;;1.10;;
10823;SDS011;39116;59.332;18.034;2022-07-18T03:31:16;2.10;;;1.08;;
10823;SDS011;39116;59.332;18.034;2022-07-18T03:33:43;1.45;;;1.10;;
10823;SDS011;39116;59.332;18.034;2022-07-18T03:36:09;1.35;;;1.00;;
10823;SDS011;39116;59.332;18.034;2022-07-18T03:38:37;2.55;;;1.00;;
10823;SDS011;39116;59.332;18.034;2022-07-18T03:41:08;1.20;;;1.10;;
10823;SDS011;39116;59.332;18.034;2022-07-18T03:43:34;2.65;;;1.00;;
10823;SDS011;39116;59.332;18.034;2022-07-18T03:46:00;2.13;;;0.98;;
10823;SDS011;39116;59.332;18.034;2022-07-18T03:48:27;2.67;;;1.30;;
10823;SDS011;39116;59.332;18.034;2022-07-18T03:50:53;1.50;;;1.10;;
10823;SDS011;39116;59.332;18.034;2022-07-18T03:53:19;4.90;;;1.40;;
10823;SDS011;39116;59.332;18.034;2022-07-18T03:55:48;4.43;;;1.42;;
10823;SDS011;39116;59.332;18.034;2022-07-18T03:58:14;3.92;;;1.20;;
10823;SDS011;39116;59.332;18.034;2022-07-18T04:00:40;2.20;;;1.10;;
10823;SDS011;39116;59.332;18.034;2022-07-18T04:03:07;7.65;;;1.60;;
10823;SDS011;39116;59.332;18.034;2022-07-18T04:05:33;2.35;;;1.30;;
10823;SDS011;39116;59.332;18.034;2022-07-18T04:08:00;2.08;;;1.17;;
10823;SDS011;39116;59.332;18.034;2022-07-18T04:10:26;3.08;;;1.17;;
10823;SDS011;39116;59.332;18.034;2022-07-18T04:12:54;5.35;;;1.45;;
10823;SDS011;39116;59.332;18.034;2022-07-18T04:15:21;3.60;;;1.20;;
10823;SDS011;39116;59.332;18.034;2022-07-18T04:17:48;1.70;;;1.27;;
10823;SDS011;39116;59.332;18.034;2022-07-18T04:20:15;2.58;;;1.33;;
10823;SDS011;39116;59.332;18.034;2022-07-18T04:22:45;3.88;;;1.50;;
10823;SDS011;39116;59.332;18.034;2022-07-18T04:25:11;1.52;;;1.30;;
10823;SDS011;39116;59.332;18.034;2022-07-18T04:27:38;2.65;;;1.30;;
10823;SDS011;39116;59.332;18.034;2022-07-18T04:30:07;1.63;;;1.40;;
10823;SDS011;39116;59.332;18.034;2022-07-18T04:32:33;1.90;;;1.20;;
10823;SDS011;39116;59.332;18.034;2022-07-18T04:35:00;4.10;;;1.60;;
10823;SDS011;39116;59.332;18.034;2022-07-18T04:37:28;3.25;;;1.40;;
10823;SDS011;39116;59.332;18.034;2022-07-18T04:39:55;1.83;;;1.45;;
10823;SDS011;39116;59.332;18.034;2022-07-18T04:42:21;5.25;;;1.50;;
10823;SDS011;39116;59.332;18.034;2022-07-18T04:44:48;2.53;;;1.63;;
10823;SDS011;39116;59.332;18.034;2022-07-18T04:47:16;1.60;;;1.50;;
10823;SDS011;39116;59.332;18.034;2022-07-18T04:49:42;5.57;;;1.88;;
10823;SDS011;39116;59.332;18.034;2022-07-18T04:52:09;2.65;;;1.58;;
10823;SDS011;39116;59.332;18.034;2022-07-18T04:54:35;3.50;;;1.55;;
10823;SDS011;39116;59.332;18.034;2022-07-18T04:57:02;3.20;;;1.70;;
10823;SDS011;39116;59.332;18.034;2022-07-18T04:59:28;3.22;;;1.77;;
10823;SDS011;39116;59.332;18.034;2022-07-18T05:01:55;3.83;;;1.70;;
10823;SDS011;39116;59.332;18.034;2022-07-18T05:04:23;3.35;;;2.00;;
10823;SDS011;39116;59.332;18.034;2022-07-18T05:06:49;2.50;;;1.77;;
10823;SDS011;39116;59.332;18.034;2022-07-18T05:09:15;4.00;;;2.10;;
10823;SDS011;39116;59.332;18.034;2022-07-18T05:11:42;6.97;;;2.08;;
10823;SDS011;39116;59.332;18.034;2022-07-18T05:14:08;3.40;;;1.70;;
10823;SDS011;39116;59.332;18.034;2022-07-18T05:16:35;5.45;;;2.30;;
10823;SDS011;39116;59.332;18.034;2022-07-18T05:19:01;4.95;;;2.15;;
10823;SDS011;39116;59.332;18.034;2022-07-18T05:21:29;4.88;;;1.95;;
10823;SDS011;39116;59.332;18.034;2022-07-18T05:23:56;5.05;;;2.35;;
10823;SDS011;39116;59.332;18.034;2022-07-18T05:26:23;5.05;;;2.28;;
10823;SDS011;39116;59.332;18.034;2022-07-18T05:28:49;3.22;;;2.30;;
10823;SDS011;39116;59.332;18.034;2022-07-18T05:31:16;5.25;;;2.40;;
10823;SDS011;39116;59.332;18.034;2022-07-18T05:33:42;5.30;;;2.25;;
10823;SDS011;39116;59.332;18.034;2022-07-18T05:36:09;5.70;;;2.33;;
10823;SDS011;39116;59.332;18.034;2022-07-18T05:38:37;7.10;;;2.63;;
10823;SDS011;39116;59.332;18.034;2022-07-18T05:41:03;6.53;;;2.53;;
10823;SDS011;39116;59.332;18.034;2022-07-18T05:43:30;6.63;;;2.78;;
10823;SDS011;39116;59.332;18.034;2022-07-18T05:45:56;6.80;;;2.65;;
10823;SDS011;39116;59.332;18.034;2022-07-18T05:48:23;5.32;;;2.60;;
10823;SDS011;39116;59.332;18.034;2022-07-18T05:50:49;4.80;;;2.67;;
10823;SDS011;39116;59.332;18.034;2022-07-18T05:53:15;8.10;;;3.03;;
10823;SDS011;39116;59.332;18.034;2022-07-18T05:55:43;5.85;;;2.60;;
10823;SDS011;39116;59.332;18.034;2022-07-18T05:58:10;6.43;;;2.60;;
10823;SDS011;39116;59.332;18.034;2022-07-18T06:00:36;4.25;;;2.92;;
10823;SDS011;39116;59.332;18.034;2022-07-18T06:03:03;4.97;;;2.40;;
10823;SDS011;39116;59.332;18.034;2022-07-18T06:05:29;9.13;;;3.10;;
10823;SDS011;39116;59.332;18.034;2022-07-18T06:07:56;5.72;;;2.88;;
10823;SDS011;39116;59.332;18.034;2022-07-18T06:10:23;7.63;;;3.03;;
10823;SDS011;39116;59.332;18.034;2022-07-18T06:12:51;7.95;;;3.45;;
10823;SDS011;39116;59.332;18.034;2022-07-18T06:15:18;5.90;;;2.90;;
10823;SDS011;39116;59.332;18.034;2022-07-18T06:17:44;6.15;;;3.13;;
10823;SDS011;39116;59.332;18.034;2022-07-18T06:20:11;7.00;;;2.88;;
10823;SDS011;39116;59.332;18.034;2022-07-18T06:22:37;6.15;;;3.03;;
10823;SDS011;39116;59.332;18.034;2022-07-18T06:25:04;7.50;;;3.10;;
10823;SDS011;39116;59.332;18.034;2022-07-18T06:27:30;7.80;;;3.03;;
10823;SDS011;39116;59.332;18.034;2022-07-18T06:29:58;5.90;;;3.28;;
10823;SDS011;39116;59.332;18.034;2022-07-18T06:32:25;7.00;;;2.92;;
10823;SDS011;39116;59.332;18.034;2022-07-18T06:34:51;4.95;;;2.85;;
10823;SDS011;39116;59.332;18.034;2022-07-18T06:37:18;6.38;;;3.42;;
10823;SDS011;39116;59.332;18.034;2022-07-18T06:39:44;7.88;;;3.45;;
10823;SDS011;39116;59.332;18.034;2022-07-18T06:42:11;7.63;;;3.60;;
10823;SDS011;39116;59.332;18.034;2022-07-18T06:44:37;7.97;;;3.10;;
10823;SDS011;39116;59.332;18.034;2022-07-18T06:47:05;5.15;;;2.70;;
10823;SDS011;39116;59.332;18.034;2022-07-18T06:49:31;10.38;;;3.15;;
10823;SDS011;39116;59.332;18.034;2022-07-18T06:51:58;9.07;;;3.60;;
10823;SDS011;39116;59.332;18.034;2022-07-18T06:54:24;6.65;;;3.08;;
10823;SDS011;39116;59.332;18.034;2022-07-18T06:56:52;7.10;;;2.95;;
10823;SDS011;39116;59.332;18.034;2022-07-18T06:59:19;8.05;;;3.45;;
10823;SDS011;39116;59.332;18.034;2022-07-18T07:01:45;7.68;;;3.55;;
10823;SDS011;39116;59.332;18.034;2022-07-18T07:04:13;5.75;;;3.38;;
10823;SDS011;39116;59.332;18.034;2022-07-18T07:06:40;8.23;;;3.33;;
10823;SDS011;39116;59.332;18.034;2022-07-18T07:09:06;6.45;;;3.38;;
10823;SDS011;39116;59.332;18.034;2022-07-18T07:11:33;7.60;;;3.35;;
10823;SDS011;39116;59.332;18.034;2022-07-18T07:13:59;7.95;;;3.13;;
10823;SDS011;39116;59.332;18.034;2022-07-18T07:16:26;7.97;;;3.20;;
10823;SDS011;39116;59.332;18.034;2022-07-18T07:18:53;7.90;;;3.22;;
10823;SDS011;39116;59.332;18.034;2022-07-18T07:21:21;7.65;;;3.67;;
10823;SDS011;39116;59.332;18.034;2022-07-18T07:23:48;6.18;;;3.47;;
10823;SDS011;39116;59.332;18.034;2022-07-18T07:26:14;5.55;;;2.70;;
10823;SDS011;39116;59.332;18.034;2022-07-18T07:28:41;7.45;;;3.42;;
10823;SDS011;39116;59.332;18.034;2022-07-18T07:31:07;6.40;;;2.92;;
10823;SDS011;39116;59.332;18.034;2022-07-18T07:33:34;5.82;;;2.90;;
10823;SDS011;39116;59.332;18.034;2022-07-18T07:36:00;8.35;;;3.20;;
10823;SDS011;39116;59.332;18.034;2022-07-18T07:38:30;7.03;;;2.78;;
10823;SDS011;39116;59.332;18.034;2022-07-18T07:40:56;8.43;;;3.22;;
10823;SDS011;39116;59.332;18.034;2022-07-18T07:43:26;4.22;;;3.15;;
10823;SDS011;39116;59.332;18.034;2022-07-18T07:45:52;5.65;;;3.08;;
10823;SDS011;39116;59.332;18.034;2022-07-18T07:48:21;7.10;;;3.22;;
10823;SDS011;39116;59.332;18.034;2022-07-18T07:50:47;8.80;;;3.53;;
10823;SDS011;39116;59.332;18.034;2022-07-18T07:53:15;5.97;;;3.22;;
10823;SDS011;39116;59.332;18.034;2022-07-18T07:55:43;7.13;;;3.40;;
10823;SDS011;39116;59.332;18.034;2022-07-18T07:58:10;7.00;;;2.85;;
10823;SDS011;39116;59.332;18.034;2022-07-18T08:00:36;5.57;;;3.13;;
10823;SDS011;39116;59.332;18.034;2022-07-18T08:03:04;7.65;;;3.33;;
10823;SDS011;39116;59.332;18.034;2022-07-18T08:05:31;4.90;;;2.90;;
10823;SDS011;39116;59.332;18.034;2022-07-18T08:07:58;6.80;;;3.17;;
10823;SDS011;39116;59.332;18.034;2022-07-18T08:10:24;7.70;;;2.72;;
10823;SDS011;39116;59.332;18.034;2022-07-18T08:12:52;7.35;;;3.05;;
10823;SDS011;39116;59.332;18.034;2022-07-18T08:15:19;9.25;;;2.90;;
10823;SDS011;39116;59.332;18.034;2022-07-18T08:17:45;5.25;;;2.72;;
10823;SDS011;39116;59.332;18.034;2022-07-18T08:20:12;5.47;;;2.55;;
10823;SDS011;39116;59.332;18.034;2022-07-18T08:22:51;9.48;;;2.90;;
10823;SDS011;39116;59.332;18.034;2022-07-18T08:25:18;6.90;;;2.95;;
10823;SDS011;39116;59.332;18.034;2022-07-18T08:27:44;6.88;;;3.20;;
10823;SDS011;39116;59.332;18.034;2022-07-18T08:30:12;5.72;;;3.10;;
10823;SDS011;39116;59.332;18.034;2022-07-18T08:32:38;6.57;;;3.05;;
10823;SDS011;39116;59.332;18.034;2022-07-18T08:35:05;7.57;;;3.20;;
10823;SDS011;39116;59.332;18.034;2022-07-18T08:37:32;5.90;;;2.87;;
10823;SDS011;39116;59.332;18.034;2022-07-18T08:39:58;4.88;;;2.60;;
10823;SDS011;39116;59.332;18.034;2022-07-18T08:42:25;6.72;;;2.92;;
10823;SDS011;39116;59.332;18.034;2022-07-18T08:44:52;5.25;;;2.72;;
10823;SDS011;39116;59.332;18.034;2022-07-18T08:47:22;6.15;;;2.90;;
10823;SDS011;39116;59.332;18.034;2022-07-18T08:49:49;6.30;;;3.10;;
10823;SDS011;39116;59.332;18.034;2022-07-18T08:52:15;5.82;;;3.25;;
10823;SDS011;39116;59.332;18.034;2022-07-18T08:54:42;5.60;;;3.00;;
10823;SDS011;39116;59.332;18.034;2022-07-18T08:57:08;4.30;;;2.78;;
10823;SDS011;39116;59.332;18.034;2022-07-18T08:59:35;5.82;;;3.00;;
10823;SDS011;39116;59.332;18.034;2022-07-18T09:02:01;6.07;;;2.67;;
10823;SDS011;39116;59.332;18.034;2022-07-18T09:04:33;4.63;;;2.95;;
10823;SDS011;39116;59.332;18.034;2022-07-18T09:06:59;7.20;;;3.00;;
10823;SDS011;39116;59.332;18.034;2022-07-18T09:09:26;4.80;;;2.70;;
10823;SDS011;39116;59.332;18.034;2022-07-18T09:11:53;5.05;;;2.78;;
10823;SDS011;39116;59.332;18.034;2022-07-18T09:14:33;3.40;;;2.70;;
10823;SDS011;39116;59.332;18.034;2022-07-18T09:17:04;6.80;;;2.85;;
10823;SDS011;39116;59.332;18.034;2022-07-18T09:19:30;6.47;;;2.63;;
10823;SDS011;39116;59.332;18.034;2022-07-18T09:22:11;7.88;;;3.10;;
10823;SDS011;39116;59.332;18.034;2022-07-18T09:24:51;3.92;;;2.33;;
10823;SDS011;39116;59.332;18.034;2022-07-18T09:27:29;4.20;;;2.80;;
10823;SDS011;39116;59.332;18.034;2022-07-18T09:30:12;4.57;;;2.17;;
10823;SDS011;39116;59.332;18.034;2022-07-18T09:32:40;4.50;;;2.13;;
10823;SDS011;39116;59.332;18.034;2022-07-18T09:35:07;4.85;;;2.78;;
10823;SDS011;39116;59.332;18.034;2022-07-18T09:37:35;4.75;;;2.60;;
10823;SDS011;39116;59.332;18.034;2022-07-18T09:40:13;4.28;;;2.28;;
10823;SDS011;39116;59.332;18.034;2022-07-18T09:42:40;4.65;;;2.55;;
10823;SDS011;39116;59.332;18.034;2022-07-18T09:45:07;6.10;;;2.63;;
10823;SDS011;39116;59.332;18.034;2022-07-18T09:47:35;5.95;;;3.08;;
10823;SDS011;39116;59.332;18.034;2022-07-18T09:50:18;5.85;;;2.67;;
10823;SDS011;39116;59.332;18.034;2022-07-18T09:52:47;6.22;;;2.75;;
10823;SDS011;39116;59.332;18.034;2022-07-18T09:55:21;5.35;;;2.40;;
10823;SDS011;39116;59.332;18.034;2022-07-18T09:57:56;6.55;;;3.05;;
10823;SDS011;39116;59.332;18.034;2022-07-18T10:00:23;4.10;;;2.25;;
10823;SDS011;39116;59.332;18.034;2022-07-18T10:02:49;4.88;;;2.60;;
10823;SDS011;39116;59.332;18.034;2022-07-18T10:05:16;3.60;;;2.40;;
10823;SDS011;39116;59.332;18.034;2022-07-18T10:07:43;3.65;;;1.98;;
10823;SDS011;39116;59.332;18.034;2022-07-18T10:10:10;2.83;;;2.22;;
10823;SDS011;39116;59.332;18.034;2022-07-18T10:12:37;4.63;;;2.35;;
10823;SDS011;39116;59.332;18.034;2022-07-18T10:15:04;3.03;;;2.08;;
10823;SDS011;39116;59.332;18.034;2022-07-18T10:17:31;4.00;;;2.25;;
10823;SDS011;39116;59.332;18.034;2022-07-18T10:20:02;3.97;;;2.15;;
10823;SDS011;39116;59.332;18.034;2022-07-18T10:22:28;4.05;;;2.03;;
10823;SDS011;39116;59.332;18.034;2022-07-18T10:24:55;4.38;;;1.80;;
10823;SDS011;39116;59.332;18.034;2022-07-18T10:27:23;5.45;;;2.40;;
10823;SDS011;39116;59.332;18.034;2022-07-18T10:30:09;4.50;;;2.17;;
10823;SDS011;39116;59.332;18.034;2022-07-18T10:32:37;2.95;;;2.20;;
10823;SDS011;39116;59.332;18.034;2022-07-18T10:35:03;3.72;;;2.30;;
10823;SDS011;39116;59.332;18.034;2022-07-18T10:37:31;4.45;;;2.17;;
10823;SDS011;39116;59.332;18.034;2022-07-18T10:40:00;4.80;;;2.10;;
10823;SDS011;39116;59.332;18.034;2022-07-18T10:42:52;3.75;;;2.20;;
10823;SDS011;39116;59.332;18.034;2022-07-18T10:45:44;4.75;;;2.22;;
10823;SDS011;39116;59.332;18.034;2022-07-18T10:51:01;2.53;;;1.83;;
10823;SDS011;39116;59.332;18.034;2022-07-18T10:53:54;3.83;;;2.30;;
10823;SDS011;39116;59.332;18.034;2022-07-18T10:56:22;3.38;;;2.20;;
10823;SDS011;39116;59.332;18.034;2022-07-18T10:59:15;3.85;;;2.17;;
10823;SDS011;39116;59.332;18.034;2022-07-18T11:01:47;3.60;;;2.40;;
10823;SDS011;39116;59.332;18.034;2022-07-18T11:04:25;4.30;;;2.10;;
10823;SDS011;39116;59.332;18.034;2022-07-18T11:06:52;3.22;;;2.25;;
10823;SDS011;39116;59.332;18.034;2022-07-18T11:09:31;4.03;;;2.40;;
10823;SDS011;39116;59.332;18.034;2022-07-18T11:15:03;4.10;;;2.00;;
10823;SDS011;39116;59.332;18.034;2022-07-18T11:20:23;3.67;;;2.17;;
10823;SDS011;39116;59.332;18.034;2022-07-18T11:22:50;3.42;;;2.15;;
10823;SDS011;39116;59.332;18.034;2022-07-18T11:25:17;4.68;;;2.00;;
10823;SDS011;39116;59.332;18.034;2022-07-18T11:27:44;4.15;;;2.22;;
10823;SDS011;39116;59.332;18.034;2022-07-18T11:30:17;4.35;;;2.30;;
10823;SDS011;39116;59.332;18.034;2022-07-18T11:32:44;4.65;;;2.05;;
10823;SDS011;39116;59.332;18.034;2022-07-18T11:35:10;3.90;;;2.00;;
10823;SDS011;39116;59.332;18.034;2022-07-18T11:37:38;5.13;;;2.05;;
10823;SDS011;39116;59.332;18.034;2022-07-18T11:40:05;3.13;;;1.77;;
10823;SDS011;39116;59.332;18.034;2022-07-18T11:42:35;1.60;;;1.50;;
10823;SDS011;39116;59.332;18.034;2022-07-18T11:45:02;2.35;;;1.75;;
10823;SDS011;39116;59.332;18.034;2022-07-18T11:47:29;2.63;;;1.75;;
10823;SDS011;39116;59.332;18.034;2022-07-18T11:49:56;3.97;;;2.40;;
10823;SDS011;39116;59.332;18.034;2022-07-18T11:52:23;4.20;;;2.17;;
10823;SDS011;39116;59.332;18.034;2022-07-18T11:54:50;2.45;;;1.77;;
10823;SDS011;39116;59.332;18.034;2022-07-18T11:57:25;3.28;;;1.75;;
10823;SDS011;39116;59.332;18.034;2022-07-18T11:59:52;3.45;;;1.88;;
10823;SDS011;39116;59.332;18.034;2022-07-18T12:02:18;2.88;;;2.13;;
10823;SDS011;39116;59.332;18.034;2022-07-18T12:04:47;2.95;;;1.98;;
10823;SDS011;39116;59.332;18.034;2022-07-18T12:07:14;3.65;;;2.20;;
10823;SDS011;39116;59.332;18.034;2022-07-18T12:09:41;3.53;;;1.58;;
10823;SDS011;39116;59.332;18.034;2022-07-18T12:12:07;2.60;;;2.08;;
10823;SDS011;39116;59.332;18.034;2022-07-18T12:14:34;3.13;;;2.15;;
10823;SDS011;39116;59.332;18.034;2022-07-18T12:17:02;4.85;;;2.22;;
10823;SDS011;39116;59.332;18.034;2022-07-18T12:19:32;3.00;;;2.15;;
10823;SDS011;39116;59.332;18.034;2022-07-18T12:22:05;4.32;;;2.55;;
10823;SDS011;39116;59.332;18.034;2022-07-18T12:24:33;5.28;;;2.38;;
10823;SDS011;39116;59.332;18.034;2022-07-18T12:27:13;7.45;;;2.70;;
10823;SDS011;39116;59.332;18.034;2022-07-18T12:32:39;3.50;;;2.38;;
10823;SDS011;39116;59.332;18.034;2022-07-18T12:35:07;3.95;;;2.28;;
10823;SDS011;39116;59.332;18.034;2022-07-18T12:37:34;2.72;;;2.10;;
10823;SDS011;39116;59.332;18.034;2022-07-18T12:40:02;2.53;;;2.00;;
10823;SDS011;39116;59.332;18.034;2022-07-18T12:42:30;4.20;;;2.03;;
10823;SDS011;39116;59.332;18.034;2022-07-18T12:44:57;4.43;;;2.47;;
10823;SDS011;39116;59.332;18.034;2022-07-18T12:47:23;4.50;;;2.35;;
10823;SDS011;39116;59.332;18.034;2022-07-18T12:49:49;3.92;;;2.20;;
10823;SDS011;39116;59.332;18.034;2022-07-18T12:52:16;3.83;;;2.15;;
10823;SDS011;39116;59.332;18.034;2022-07-18T12:54:44;5.05;;;2.13;;
10823;SDS011;39116;59.332;18.034;2022-07-18T12:57:11;3.05;;;2.10;;
10823;SDS011;39116;59.332;18.034;2022-07-18T12:59:37;2.42;;;2.00;;
10823;SDS011;39116;59.332;18.034;2022-07-18T13:02:04;3.17;;;1.80;;
10823;SDS011;39116;59.332;18.034;2022-07-18T13:04:30;2.17;;;1.85;;
10823;SDS011;39116;59.332;18.034;2022-07-18T13:06:57;3.45;;;2.10;;
10823;SDS011;39116;59.332;18.034;2022-07-18T13:09:23;2.65;;;1.90;;
10823;SDS011;39116;59.332;18.034;2022-07-18T13:11:51;3.00;;;2.30;;
10823;SDS011;39116;59.332;18.034;2022-07-18T13:14:18;3.20;;;2.17;;
10823;SDS011;39116;59.332;18.034;2022-07-18T13:16:44;2.90;;;1.95;;
10823;SDS011;39116;59.332;18.034;2022-07-18T13:19:12;2.33;;;1.73;;
10823;SDS011;39116;59.332;18.034;2022-07-18T13:21:39;3.22;;;2.15;;
10823;SDS011;39116;59.332;18.034;2022-07-18T13:24:06;2.78;;;2.20;;
10823;SDS011;39116;59.332;18.034;2022-07-18T13:26:32;3.15;;;2.30;;
10823;SDS011;39116;59.332;18.034;2022-07-18T13:29:00;3.25;;;1.90;;
10823;SDS011;39116;59.332;18.034;2022-07-18T13:31:27;3.00;;;2.13;;
10823;SDS011;39116;59.332;18.034;2022-07-18T13:33:53;2.20;;;1.70;;
10823;SDS011;39116;59.332;18.034;2022-07-18T13:36:20;3.78;;;2.20;;
10823;SDS011;39116;59.332;18.034;2022-07-18T13:38:46;2.78;;;2.00;;
10823;SDS011;39116;59.332;18.034;2022-07-18T13:41:13;3.63;;;2.50;;
10823;SDS011;39116;59.332;18.034;2022-07-18T13:43:39;2.60;;;2.00;;
10823;SDS011;39116;59.332;18.034;2022-07-18T13:46:08;3.28;;;2.28;;
10823;SDS011;39116;59.332;18.034;2022-07-18T13:48:34;3.25;;;2.55;;
10823;SDS011;39116;59.332;18.034;2022-07-18T13:51:01;3.42;;;2.22;;
10823;SDS011;39116;59.332;18.034;2022-07-18T13:53:27;3.95;;;2.75;;
10823;SDS011;39116;59.332;18.034;2022-07-18T13:55:54;3.83;;;2.55;;
10823;SDS011;39116;59.332;18.034;2022-07-18T13:58:20;2.88;;;1.85;;
10823;SDS011;39116;59.332;18.034;2022-07-18T14:00:47;3.65;;;2.10;;
10823;SDS011;39116;59.332;18.034;2022-07-18T14:03:15;4.38;;;2.33;;
10823;SDS011;39116;59.332;18.034;2022-07-18T14:05:41;3.08;;;2.20;;
10823;SDS011;39116;59.332;18.034;2022-07-18T14:08:08;2.65;;;2.38;;
10823;SDS011;39116;59.332;18.034;2022-07-18T14:10:34;3.38;;;2.65;;
10823;SDS011;39116;59.332;18.034;2022-07-18T14:13:01;2.80;;;2.30;;
10823;SDS011;39116;59.332;18.034;2022-07-18T14:15:28;4.57;;;2.28;;
10823;SDS011;39116;59.332;18.034;2022-07-18T14:17:55;2.50;;;2.22;;
10823;SDS011;39116;59.332;18.034;2022-07-18T14:20:23;3.10;;;2.20;;
10823;SDS011;39116;59.332;18.034;2022-07-18T14:22:50;5.43;;;2.17;;
10823;SDS011;39116;59.332;18.034;2022-07-18T14:25:17;3.63;;;2.08;;
10823;SDS011;39116;59.332;18.034;2022-07-18T14:27:44;3.40;;;1.92;;
10823;SDS011;39116;59.332;18.034;2022-07-18T14:30:11;2.50;;;1.70;;
10823;SDS011;39116;59.332;18.034;2022-07-18T14:32:38;4.68;;;1.92;;
10823;SDS011;39116;59.332;18.034;2022-07-18T14:35:05;2.13;;;1.65;;
10823;SDS011;39116;59.332;18.034;2022-07-18T14:37:33;2.30;;;1.73;;
10823;SDS011;39116;59.332;18.034;2022-07-18T14:39:59;1.50;;;1.30;;
10823;SDS011;39116;59.332;18.034;2022-07-18T14:42:26;1.67;;;1.42;;
10823;SDS011;39116;59.332;18.034;2022-07-18T14:44:53;2.33;;;1.42;;
10823;SDS011;39116;59.332;18.034;2022-07-18T14:47:19;2.30;;;1.58;;